createdAt,value
2023-05-06T00:00:18.007Z,248.30
2023-05-06T00:01:17.954Z,245.33
2023-05-06T00:02:17.795Z,248.48
2023-05-06T00:03:17.888Z,249.23
2023-05-06T00:04:17.912Z,250.00
2023-05-06T00:05:17.931Z,249.79
2023-05-06T00:06:18.012Z,247.14
2023-05-06T00:07:18.055Z,250.00
2023-05-06T00:08:18.085Z,247.68
2023-05-06T00:09:18.164Z,248.33
2023-05-06T00:10:18.197Z,249.22
2023-05-06T00:11:18.257Z,249.96
2023-05-06T00:12:18.346Z,248.85
2023-05-06T00:13:18.432Z,249.30
2023-05-06T00:14:18.437Z,247.92
2023-05-06T00:15:18.573Z,248.40
2023-05-06T00:16:18.635Z,249.84
2023-05-06T00:17:18.626Z,248.98
2023-05-06T00:18:18.677Z,247.61
2023-05-06T00:19:18.865Z,246.14
2023-05-06T00:20:18.797Z,247.03
2023-05-06T00:21:18.845Z,247.79
2023-05-06T00:22:18.900Z,248.90
2023-05-06T00:23:18.937Z,247.47
2023-05-06T00:24:18.952Z,246.89
2023-05-06T00:25:19.001Z,247.81
2023-05-06T00:26:19.044Z,249.49
2023-05-06T00:27:19.086Z,248.54
2023-05-06T00:28:19.149Z,249.65
2023-05-06T00:29:19.218Z,246.26
2023-05-06T00:30:19.259Z,247.00
2023-05-06T00:31:19.326Z,246.54
2023-05-06T00:32:19.355Z,246.05
2023-05-06T00:33:19.387Z,247.01
2023-05-06T00:34:19.440Z,246.23
2023-05-06T00:35:19.543Z,245.62
2023-05-06T00:36:19.645Z,246.37
2023-05-06T00:37:19.552Z,246.86
2023-05-06T00:38:19.594Z,247.60
2023-05-06T00:39:19.640Z,246.18
2023-05-06T00:40:19.658Z,246.90
2023-05-06T00:41:19.666Z,246.90
2023-05-06T00:42:19.709Z,248.45
2023-05-06T00:43:19.762Z,248.97
2023-05-06T00:44:20.632Z,247.95
2023-05-06T00:45:19.800Z,249.07
2023-05-06T00:46:19.836Z,249.53
2023-05-06T00:47:19.868Z,249.21
2023-05-06T00:48:19.901Z,247.96
2023-05-06T00:49:19.907Z,247.69
2023-05-06T00:50:19.963Z,249.01
2023-05-06T00:51:20.048Z,247.47
2023-05-06T00:52:20.015Z,248.63
2023-05-06T00:53:20.036Z,247.36
2023-05-06T00:54:20.068Z,247.51
2023-05-06T00:55:20.115Z,248.35
2023-05-06T00:56:20.895Z,248.86
2023-05-06T00:57:20.123Z,249.02
2023-05-06T00:58:20.517Z,249.00
2023-05-06T00:59:20.604Z,249.81
2023-05-06T01:00:20.252Z,248.69
2023-05-06T01:01:20.439Z,249.59
2023-05-06T01:02:20.450Z,248.45
2023-05-06T01:03:20.540Z,249.56
2023-05-06T01:04:20.475Z,247.62
2023-05-06T01:05:20.544Z,248.88
2023-05-06T01:06:20.605Z,249.71
2023-05-06T01:07:20.646Z,248.67
2023-05-06T01:08:20.610Z,248.22
2023-05-06T01:09:20.651Z,249.26
2023-05-06T01:10:20.706Z,248.95
2023-05-06T01:11:20.698Z,248.23
2023-05-06T01:12:20.721Z,248.99
2023-05-06T01:13:20.833Z,249.50
2023-05-06T01:14:20.748Z,248.65
2023-05-06T01:15:20.764Z,248.54
2023-05-06T01:16:20.790Z,249.60
2023-05-06T01:17:20.738Z,248.38
2023-05-06T01:18:20.798Z,247.90
2023-05-06T01:19:20.811Z,248.18
2023-05-06T01:20:20.779Z,247.77
2023-05-06T01:21:20.776Z,248.72
2023-05-06T01:22:20.772Z,247.02
2023-05-06T01:23:20.849Z,246.65
2023-05-06T01:24:20.794Z,247.15
2023-05-06T01:25:20.822Z,245.48
2023-05-06T01:26:20.845Z,246.05
2023-05-06T01:27:20.859Z,245.70
2023-05-06T01:28:20.852Z,245.33
2023-05-06T01:29:20.874Z,245.04
2023-05-06T01:30:20.886Z,245.15
2023-05-06T01:31:20.886Z,245.15
2023-05-06T01:32:20.878Z,246.31
2023-05-06T01:33:20.898Z,247.02
2023-05-06T01:34:20.828Z,246.03
2023-05-06T01:35:20.831Z,244.51
2023-05-06T01:36:20.870Z,245.11
2023-05-06T01:37:20.905Z,246.00
2023-05-06T01:38:20.878Z,245.65
2023-05-06T01:39:20.935Z,244.81
2023-05-06T01:40:20.870Z,247.06
2023-05-06T01:41:20.840Z,246.47
2023-05-06T01:42:20.861Z,246.39
2023-05-06T01:43:20.838Z,246.94
2023-05-06T01:44:20.838Z,246.65
2023-05-06T01:45:20.892Z,247.90
2023-05-06T01:46:20.878Z,248.39
2023-05-06T01:47:20.822Z,247.11
2023-05-06T01:48:20.827Z,246.43
2023-05-06T01:49:20.836Z,247.41
2023-05-06T01:50:20.829Z,246.93
2023-05-06T01:51:20.839Z,246.85
2023-05-06T01:52:20.795Z,246.65
2023-05-06T01:53:20.787Z,246.59
2023-05-06T01:54:20.793Z,246.98
2023-05-06T01:55:20.878Z,248.60
2023-05-06T01:56:20.817Z,248.28
2023-05-06T01:57:20.794Z,248.77
2023-05-06T01:58:20.807Z,247.23
2023-05-06T01:59:20.818Z,248.69
2023-05-06T02:00:20.799Z,247.33
2023-05-06T02:01:20.803Z,247.79
2023-05-06T02:02:20.791Z,247.70
2023-05-06T02:03:20.861Z,247.61
2023-05-06T02:04:20.789Z,248.04
2023-05-06T02:05:20.797Z,246.52
2023-05-06T02:06:20.769Z,247.21
2023-05-06T02:07:20.772Z,248.80
2023-05-06T02:08:20.775Z,247.02
2023-05-06T02:09:20.779Z,247.04
2023-05-06T02:10:20.763Z,245.74
2023-05-06T02:11:20.778Z,247.65
2023-05-06T02:12:20.756Z,246.90
2023-05-06T02:13:20.867Z,245.55
2023-05-06T02:14:20.763Z,246.14
2023-05-06T02:15:20.765Z,246.16
2023-05-06T02:16:20.781Z,245.73
2023-05-06T02:17:20.741Z,244.52
2023-05-06T02:18:20.731Z,245.94
2023-05-06T02:19:20.754Z,245.45
2023-05-06T02:20:20.716Z,245.19
2023-05-06T02:21:20.697Z,246.44
2023-05-06T02:22:20.743Z,244.36
2023-05-06T02:23:20.720Z,246.02
2023-05-06T02:24:20.683Z,245.13
2023-05-06T02:25:20.732Z,245.57
2023-05-06T02:26:20.694Z,245.03
2023-05-06T02:27:20.711Z,244.80
2023-05-06T02:28:20.687Z,244.74
2023-05-06T02:29:21.662Z,245.65
2023-05-06T02:30:20.690Z,244.46
2023-05-06T02:31:20.722Z,242.63
2023-05-06T02:32:20.706Z,244.15
2023-05-06T02:33:20.678Z,246.23
2023-05-06T02:34:20.712Z,245.75
2023-05-06T02:35:20.702Z,245.27
2023-05-06T02:36:20.685Z,245.28
2023-05-06T02:37:20.690Z,244.99
2023-05-06T02:38:20.677Z,243.89
2023-05-06T02:39:20.750Z,244.65
2023-05-06T02:40:20.699Z,245.19
2023-05-06T02:41:20.678Z,246.48
2023-05-06T02:42:20.707Z,247.16
2023-05-06T02:43:20.726Z,245.39
2023-05-06T02:44:20.651Z,245.45
2023-05-06T02:45:20.664Z,246.05
2023-05-06T02:46:20.746Z,246.18
2023-05-06T02:47:20.693Z,246.82
2023-05-06T02:48:20.672Z,248.09
2023-05-06T02:49:20.642Z,248.05
2023-05-06T02:50:20.631Z,247.87
2023-05-06T02:51:20.664Z,249.35
2023-05-06T02:52:20.660Z,248.69
2023-05-06T02:53:20.675Z,249.81
2023-05-06T02:54:20.665Z,249.86
2023-05-06T02:55:20.650Z,249.45
2023-05-06T02:56:20.668Z,249.33
2023-05-06T02:57:20.638Z,248.91
2023-05-06T02:58:20.631Z,248.33
2023-05-06T02:59:20.765Z,248.54
2023-05-06T03:00:20.644Z,249.14
2023-05-06T03:01:20.674Z,250.00
2023-05-06T03:02:20.625Z,247.36
2023-05-06T03:03:20.645Z,247.05
2023-05-06T03:04:20.647Z,247.77
2023-05-06T03:05:20.623Z,247.10
2023-05-06T03:06:20.628Z,245.43
2023-05-06T03:07:20.631Z,246.79
2023-05-06T03:08:20.614Z,247.00
2023-05-06T03:09:20.640Z,248.77
2023-05-06T03:10:20.622Z,249.58
2023-05-06T03:11:20.593Z,248.26
2023-05-06T03:12:20.612Z,247.87
2023-05-06T03:13:20.647Z,248.13
2023-05-06T03:14:20.622Z,248.07
2023-05-06T03:15:20.662Z,247.69
2023-05-06T03:16:20.617Z,247.44
2023-05-06T03:17:20.598Z,247.13
2023-05-06T03:18:20.584Z,248.17
2023-05-06T03:19:20.608Z,248.71
2023-05-06T03:20:20.620Z,249.64
2023-05-06T03:21:20.616Z,248.19
2023-05-06T03:22:20.613Z,248.94
2023-05-06T03:23:20.598Z,247.75
2023-05-06T03:24:20.577Z,248.51
2023-05-06T03:25:20.595Z,247.20
2023-05-06T03:26:20.589Z,247.54
2023-05-06T03:27:20.572Z,247.82
2023-05-06T03:28:20.574Z,249.39
2023-05-06T03:29:20.562Z,247.67
2023-05-06T03:30:20.625Z,249.07
2023-05-06T03:31:20.710Z,248.00
2023-05-06T03:32:20.574Z,247.52
2023-05-06T03:33:20.574Z,246.12
2023-05-06T03:34:20.572Z,247.15
2023-05-06T03:35:20.552Z,244.93
2023-05-06T03:36:20.590Z,245.74
2023-05-06T03:37:20.576Z,245.83
2023-05-06T03:38:20.582Z,246.38
2023-05-06T03:39:20.585Z,244.96
2023-05-06T03:40:20.592Z,246.27
2023-05-06T03:41:20.572Z,244.53
2023-05-06T03:42:20.585Z,245.17
2023-05-06T03:43:20.586Z,245.36
2023-05-06T03:44:20.598Z,245.06
2023-05-06T03:45:20.583Z,243.76
2023-05-06T03:46:20.668Z,243.28
2023-05-06T03:47:20.750Z,244.14
2023-05-06T03:48:20.605Z,244.18
2023-05-06T03:49:20.614Z,242.65
2023-05-06T03:50:20.585Z,241.58
2023-05-06T03:51:20.573Z,239.53
2023-05-06T03:52:20.599Z,237.86
2023-05-06T03:53:20.621Z,239.86
2023-05-06T03:54:20.584Z,239.53
2023-05-06T03:55:20.585Z,238.30
2023-05-06T03:56:20.590Z,239.79
2023-05-06T03:57:20.601Z,239.66
2023-05-06T03:58:20.617Z,239.28
2023-05-06T03:59:20.606Z,241.16
2023-05-06T04:00:20.611Z,239.94
2023-05-06T04:01:20.577Z,239.66
2023-05-06T04:02:20.667Z,239.68
2023-05-06T04:03:20.751Z,239.22
2023-05-06T04:04:20.610Z,238.73
2023-05-06T04:05:20.602Z,239.15
2023-05-06T04:06:20.615Z,239.76
2023-05-06T04:07:20.630Z,239.76
2023-05-06T04:08:20.622Z,239.19
2023-05-06T04:09:20.617Z,239.92
2023-05-06T04:10:20.636Z,237.55
2023-05-06T04:11:20.622Z,236.99
2023-05-06T04:12:20.673Z,237.51
2023-05-06T04:13:20.692Z,236.56
2023-05-06T04:14:20.671Z,235.50
2023-05-06T04:15:20.666Z,233.86
2023-05-06T04:16:20.690Z,232.80
2023-05-06T04:17:20.644Z,233.29
2023-05-06T04:18:20.654Z,233.70
2023-05-06T04:19:20.790Z,232.26
2023-05-06T04:20:20.648Z,233.26
2023-05-06T04:21:20.665Z,234.84
2023-05-06T04:22:20.650Z,235.10
2023-05-06T04:23:20.691Z,233.98
2023-05-06T04:24:20.644Z,235.94
2023-05-06T04:25:20.636Z,236.71
2023-05-06T04:26:20.658Z,237.63
2023-05-06T04:27:20.674Z,237.40
2023-05-06T04:28:20.693Z,240.78
2023-05-06T04:29:20.690Z,240.53
2023-05-06T04:30:20.674Z,240.12
2023-05-06T04:31:20.684Z,240.36
2023-05-06T04:32:20.688Z,240.10
2023-05-06T04:33:20.721Z,243.09
2023-05-06T04:34:20.684Z,240.07
2023-05-06T04:35:20.721Z,241.49
2023-05-06T04:36:20.729Z,242.11
2023-05-06T04:37:20.709Z,242.24
2023-05-06T04:38:20.716Z,242.04
2023-05-06T04:39:20.709Z,242.15
2023-05-06T04:40:20.730Z,243.90
2023-05-06T04:41:20.729Z,243.25
2023-05-06T04:42:20.844Z,244.54
2023-05-06T04:43:20.748Z,244.81
2023-05-06T04:44:20.760Z,242.95
2023-05-06T04:45:20.760Z,244.95
2023-05-06T04:46:20.817Z,245.80
2023-05-06T04:47:20.768Z,243.69
2023-05-06T04:48:20.778Z,243.57
2023-05-06T04:49:20.787Z,244.33
2023-05-06T04:50:20.762Z,244.46
2023-05-06T04:51:20.847Z,243.73
2023-05-06T04:52:20.782Z,244.76
2023-05-06T04:53:20.823Z,243.63
2023-05-06T04:54:20.813Z,242.41
2023-05-06T04:55:20.844Z,241.21
2023-05-06T04:56:20.788Z,241.41
2023-05-06T04:57:20.802Z,243.42
2023-05-06T04:58:20.809Z,242.19
2023-05-06T04:59:20.831Z,239.83
2023-05-06T05:00:20.796Z,241.39
2023-05-06T05:01:20.963Z,240.59
2023-05-06T05:02:20.901Z,240.68
2023-05-06T05:03:20.905Z,240.79
2023-05-06T05:04:20.841Z,240.82
2023-05-06T05:05:20.829Z,241.60
2023-05-06T05:06:20.848Z,240.62
2023-05-06T05:07:20.917Z,243.37
2023-05-06T05:08:20.870Z,243.11
2023-05-06T05:09:20.840Z,243.44
2023-05-06T05:10:20.851Z,241.90
2023-05-06T05:11:20.836Z,241.58
2023-05-06T05:12:20.842Z,240.71
2023-05-06T05:13:20.882Z,240.97
2023-05-06T05:14:20.853Z,241.45
2023-05-06T05:15:20.826Z,241.48
2023-05-06T05:16:20.908Z,241.51
2023-05-06T05:17:20.862Z,241.45
2023-05-06T05:18:20.862Z,241.13
2023-05-06T05:19:20.846Z,240.64
2023-05-06T05:20:20.857Z,241.06
2023-05-06T05:21:20.865Z,240.36
2023-05-06T05:22:20.869Z,241.59
2023-05-06T05:23:20.917Z,240.29
2023-05-06T05:24:20.891Z,239.98
2023-05-06T05:25:20.883Z,240.83
2023-05-06T05:26:20.904Z,240.25
2023-05-06T05:27:20.882Z,240.37
2023-05-06T05:28:20.880Z,242.07
2023-05-06T05:29:20.863Z,243.70
2023-05-06T05:30:20.899Z,241.83
2023-05-06T05:31:20.940Z,243.78
2023-05-06T05:32:20.877Z,240.03
2023-05-06T05:33:20.975Z,241.95
2023-05-06T05:34:20.882Z,241.10
2023-05-06T05:35:20.900Z,241.81
2023-05-06T05:36:20.880Z,240.66
2023-05-06T05:37:20.871Z,239.61
2023-05-06T05:38:20.879Z,239.20
2023-05-06T05:39:20.936Z,240.21
2023-05-06T05:40:20.897Z,240.52
2023-05-06T05:41:20.862Z,239.43
2023-05-06T05:42:20.872Z,238.94
2023-05-06T05:43:20.880Z,239.36
2023-05-06T05:44:20.865Z,238.13
2023-05-06T05:45:20.870Z,239.31
2023-05-06T05:46:20.939Z,235.63
2023-05-06T05:47:20.895Z,234.64
2023-05-06T05:48:20.893Z,233.26
2023-05-06T05:49:20.878Z,233.88
2023-05-06T05:50:20.868Z,232.82
2023-05-06T05:51:20.870Z,232.29
2023-05-06T05:52:20.875Z,233.10
2023-05-06T05:53:20.894Z,232.58
2023-05-06T05:54:20.885Z,233.09
2023-05-06T05:55:20.907Z,230.71
2023-05-06T05:56:20.924Z,231.88
2023-05-06T05:57:20.865Z,230.84
2023-05-06T05:58:20.897Z,232.96
2023-05-06T05:59:20.879Z,233.66
2023-05-06T06:00:20.893Z,231.43
2023-05-06T06:01:20.866Z,231.45
2023-05-06T06:02:20.980Z,230.68
2023-05-06T06:03:20.974Z,232.21
2023-05-06T06:04:20.915Z,231.24
2023-05-06T06:05:20.880Z,232.42
2023-05-06T06:06:20.903Z,233.78
2023-05-06T06:07:20.907Z,232.90
2023-05-06T06:08:20.885Z,231.44
2023-05-06T06:09:20.944Z,230.70
2023-05-06T06:10:20.887Z,229.79
2023-05-06T06:11:20.978Z,229.65
2023-05-06T06:12:20.882Z,231.49
2023-05-06T06:13:20.976Z,229.31
2023-05-06T06:14:20.861Z,227.45
2023-05-06T06:15:20.902Z,228.93
2023-05-06T06:16:20.947Z,227.92
2023-05-06T06:17:20.881Z,227.89
2023-05-06T06:18:20.893Z,227.07
2023-05-06T06:19:20.904Z,227.45
2023-05-06T06:20:20.885Z,227.92
2023-05-06T06:21:20.906Z,228.17
2023-05-06T06:22:20.869Z,228.52
2023-05-06T06:23:20.904Z,229.08
2023-05-06T06:24:20.851Z,229.49
2023-05-06T06:25:20.895Z,232.53
2023-05-06T06:26:20.860Z,231.27
2023-05-06T06:27:20.922Z,230.61
2023-05-06T06:28:20.837Z,230.48
2023-05-06T06:29:20.864Z,229.67
2023-05-06T06:30:20.849Z,230.28
2023-05-06T06:31:20.850Z,230.41
2023-05-06T06:32:20.875Z,230.88
2023-05-06T06:33:20.844Z,231.53
2023-05-06T06:34:20.836Z,230.97
2023-05-06T06:35:20.863Z,232.84
2023-05-06T06:36:20.863Z,234.91
2023-05-06T06:37:20.831Z,233.59
2023-05-06T06:38:20.836Z,233.77
2023-05-06T06:39:20.831Z,232.84
2023-05-06T06:40:20.816Z,231.45
2023-05-06T06:41:20.799Z,231.45
2023-05-06T06:42:20.794Z,230.46
2023-05-06T06:43:20.812Z,231.59
2023-05-06T06:44:20.821Z,232.09
2023-05-06T06:45:20.789Z,234.04
2023-05-06T06:46:20.917Z,234.53
2023-05-06T06:47:20.802Z,234.21
2023-05-06T06:48:20.833Z,233.46
2023-05-06T06:49:20.855Z,232.86
2023-05-06T06:50:20.874Z,234.79
2023-05-06T06:51:20.852Z,233.63
2023-05-06T06:52:20.848Z,234.28
2023-05-06T06:53:20.919Z,234.65
2023-05-06T06:54:20.877Z,233.24
2023-05-06T06:55:20.872Z,237.45
2023-05-06T06:56:20.867Z,238.34
2023-05-06T06:57:20.910Z,238.57
2023-05-06T06:58:20.864Z,237.89
2023-05-06T06:59:20.875Z,237.05
2023-05-06T07:00:20.932Z,235.54
2023-05-06T07:01:20.958Z,236.81
2023-05-06T07:02:20.968Z,235.37
2023-05-06T07:03:20.970Z,237.26
2023-05-06T07:04:20.992Z,238.96
2023-05-06T07:05:21.033Z,238.39
2023-05-06T07:06:21.033Z,235.35
2023-05-06T07:07:21.037Z,234.91
2023-05-06T07:08:21.097Z,237.18
2023-05-06T07:09:21.113Z,235.88
2023-05-06T07:10:21.117Z,236.26
2023-05-06T07:11:21.173Z,233.13
2023-05-06T07:12:21.178Z,233.61
2023-05-06T07:13:21.299Z,231.72
2023-05-06T07:14:21.260Z,230.89
2023-05-06T07:15:21.358Z,231.44
2023-05-06T07:16:21.393Z,229.89
2023-05-06T07:17:21.373Z,227.95
2023-05-06T07:18:21.464Z,228.18
2023-05-06T07:19:21.425Z,229.14
2023-05-06T07:20:21.472Z,230.01
2023-05-06T07:21:21.496Z,229.81
2023-05-06T07:22:21.530Z,229.53
2023-05-06T07:23:21.591Z,229.93
2023-05-06T07:24:21.634Z,232.98
2023-05-06T07:25:21.636Z,231.84
2023-05-06T07:26:21.711Z,232.60
2023-05-06T07:27:21.870Z,231.02
2023-05-06T07:28:21.778Z,228.07
2023-05-06T07:29:21.851Z,226.17
2023-05-06T07:30:23.342Z,226.72
2023-05-06T07:31:22.024Z,229.18
2023-05-06T07:32:21.984Z,229.39
2023-05-06T07:33:21.988Z,229.50
2023-05-06T07:34:21.992Z,233.63
2023-05-06T07:35:22.054Z,232.53
2023-05-06T07:36:22.147Z,230.37
2023-05-06T07:37:22.205Z,233.06
2023-05-06T07:38:22.225Z,243.13
2023-05-06T07:39:22.283Z,240.78
2023-05-06T07:40:22.348Z,239.05
2023-05-06T07:41:22.418Z,240.79
2023-05-06T07:42:22.473Z,246.98
2023-05-06T07:43:22.545Z,249.08
2023-05-06T07:44:22.609Z,247.98
2023-05-06T07:45:22.665Z,249.64
2023-05-06T07:46:22.776Z,249.76
2023-05-06T07:47:22.931Z,248.20
2023-05-06T07:48:22.882Z,249.32
2023-05-06T07:49:22.906Z,249.20
2023-05-06T07:50:23.004Z,248.80
2023-05-06T07:51:23.031Z,244.60
2023-05-06T07:52:23.067Z,244.33
2023-05-06T07:53:23.130Z,246.54
2023-05-06T07:54:23.206Z,245.97
2023-05-06T07:55:23.236Z,245.43
2023-05-06T07:56:23.279Z,245.51
2023-05-06T07:57:23.321Z,243.34
2023-05-06T07:58:23.380Z,248.65
2023-05-06T07:59:23.455Z,247.90
2023-05-06T08:00:23.489Z,241.73
2023-05-06T08:01:23.550Z,237.94
2023-05-06T08:02:23.732Z,241.37
2023-05-06T08:03:23.870Z,237.98
2023-05-06T08:04:23.705Z,230.58
2023-05-06T08:05:23.772Z,227.28
2023-05-06T08:06:23.836Z,227.69
2023-05-06T08:07:23.887Z,228.64
2023-05-06T08:08:23.911Z,229.81
2023-05-06T08:09:23.951Z,228.66
2023-05-06T08:10:24.025Z,228.63
2023-05-06T08:11:24.075Z,234.62
2023-05-06T08:12:24.163Z,235.53
2023-05-06T08:13:24.211Z,235.01
2023-05-06T08:14:24.233Z,233.79
2023-05-06T08:15:24.297Z,236.62
2023-05-06T08:16:25.501Z,238.20
2023-05-06T08:17:24.403Z,241.61
2023-05-06T08:18:24.464Z,246.62
2023-05-06T08:19:24.750Z,246.99
2023-05-06T08:20:24.532Z,250.00
2023-05-06T08:21:24.574Z,246.96
2023-05-06T08:22:24.661Z,247.14
2023-05-06T08:23:24.695Z,248.84
2023-05-06T08:24:24.711Z,246.43
2023-05-06T08:25:24.762Z,241.04
2023-05-06T08:26:24.798Z,238.76
2023-05-06T08:27:24.869Z,237.11
2023-05-06T08:28:25.458Z,242.42
2023-05-06T08:29:24.940Z,240.68
2023-05-06T08:30:24.965Z,238.87
2023-05-06T08:31:25.071Z,232.88
2023-05-06T08:32:25.278Z,234.57
2023-05-06T08:33:25.162Z,238.31
2023-05-06T08:34:25.151Z,241.33
2023-05-06T08:35:25.292Z,242.56
2023-05-06T08:36:25.281Z,244.11
2023-05-06T08:37:25.314Z,242.23
2023-05-06T08:38:25.377Z,241.05
2023-05-06T08:39:25.432Z,238.97
2023-05-06T08:40:25.426Z,234.89
2023-05-06T08:41:25.467Z,233.45
2023-05-06T08:42:25.528Z,230.80
2023-05-06T08:43:25.587Z,228.45
2023-05-06T08:44:25.668Z,230.30
2023-05-06T08:45:27.394Z,233.31
2023-05-06T08:46:25.713Z,236.42
2023-05-06T08:47:25.698Z,238.05
2023-05-06T08:48:25.669Z,234.86
2023-05-06T08:49:25.662Z,232.29
2023-05-06T08:50:25.662Z,236.29
2023-05-06T08:51:26.169Z,242.59
2023-05-06T08:52:25.656Z,239.38
2023-05-06T08:53:25.632Z,237.52
2023-05-06T08:54:25.600Z,234.64
2023-05-06T08:55:25.600Z,231.35
2023-05-06T08:56:25.598Z,234.08
2023-05-06T08:57:25.569Z,238.24
2023-05-06T08:58:25.623Z,234.36
2023-05-06T08:59:25.578Z,231.24
2023-05-06T09:00:25.561Z,232.88
2023-05-06T09:01:25.592Z,232.02
2023-05-06T09:02:25.588Z,231.23
2023-05-06T09:03:25.738Z,230.18
2023-05-06T09:04:25.517Z,228.20
2023-05-06T09:05:25.538Z,228.04
2023-05-06T09:06:25.586Z,227.80
2023-05-06T09:07:25.515Z,226.99
2023-05-06T09:08:25.488Z,228.33
2023-05-06T09:09:25.494Z,225.92
2023-05-06T09:10:25.504Z,223.87
2023-05-06T09:11:25.517Z,227.42
2023-05-06T09:12:25.478Z,226.95
2023-05-06T09:13:25.457Z,225.31
2023-05-06T09:14:25.452Z,227.46
2023-05-06T09:15:25.425Z,229.56
2023-05-06T09:16:25.476Z,233.95
2023-05-06T09:17:25.458Z,231.65
2023-05-06T09:18:25.411Z,229.76
2023-05-06T09:19:25.409Z,229.03
2023-05-06T09:20:25.393Z,227.23
2023-05-06T09:21:25.434Z,227.45
2023-05-06T09:22:25.563Z,229.01
2023-05-06T09:23:25.631Z,229.19
2023-05-06T09:24:25.579Z,223.69
2023-05-06T09:25:25.633Z,220.27
2023-05-06T09:26:25.659Z,220.98
2023-05-06T09:27:25.739Z,227.08
2023-05-06T09:28:25.760Z,232.54
2023-05-06T09:29:25.809Z,235.19
2023-05-06T09:30:25.862Z,236.76
2023-05-06T09:31:25.975Z,236.01
2023-05-06T09:32:25.961Z,233.61
2023-05-06T09:33:25.953Z,232.66
2023-05-06T09:34:26.027Z,234.83
2023-05-06T09:35:26.074Z,235.49
2023-05-06T09:36:26.130Z,239.06
2023-05-06T09:37:26.150Z,239.36
2023-05-06T09:38:26.342Z,238.39
2023-05-06T09:39:26.210Z,236.97
2023-05-06T09:40:26.255Z,237.18
2023-05-06T09:41:26.332Z,240.67
2023-05-06T09:42:26.366Z,239.31
2023-05-06T09:43:26.405Z,238.10
2023-05-06T09:44:26.476Z,232.78
2023-05-06T09:45:26.489Z,227.39
2023-05-06T09:46:26.533Z,228.56
2023-05-06T09:47:26.677Z,230.11
2023-05-06T09:48:26.628Z,231.95
2023-05-06T09:49:26.690Z,231.75
2023-05-06T09:50:26.720Z,231.29
2023-05-06T09:51:26.766Z,229.73
2023-05-06T09:52:26.799Z,233.79
2023-05-06T09:53:26.854Z,235.50
2023-05-06T09:54:26.925Z,238.37
2023-05-06T09:55:27.247Z,235.48
2023-05-06T09:56:26.989Z,229.42
2023-05-06T09:57:27.080Z,226.62
2023-05-06T09:58:27.095Z,235.89
2023-05-06T09:59:27.179Z,235.47
2023-05-06T10:00:27.226Z,234.75
2023-05-06T10:01:36.052Z,230.25
2023-05-06T10:02:28.391Z,230.53
2023-05-06T10:03:27.337Z,231.57
2023-05-06T10:04:27.309Z,234.17
2023-05-06T10:05:27.248Z,236.31
2023-05-06T10:06:27.213Z,237.08
2023-05-06T10:07:27.213Z,238.03
2023-05-06T10:08:27.209Z,235.03
2023-05-06T10:09:27.204Z,235.68
2023-05-06T10:10:27.177Z,238.39
2023-05-06T10:11:27.179Z,235.61
2023-05-06T10:12:27.172Z,231.20
2023-05-06T10:13:27.247Z,230.51
2023-05-06T10:14:27.254Z,233.09
2023-05-06T10:15:27.316Z,235.85
2023-05-06T10:16:27.432Z,235.34
2023-05-06T10:17:27.441Z,237.76
2023-05-06T10:18:27.464Z,236.25
2023-05-06T10:19:27.501Z,237.05
2023-05-06T10:20:27.541Z,238.74
2023-05-06T10:21:27.579Z,239.52
2023-05-06T10:22:27.649Z,239.40
2023-05-06T10:23:27.691Z,238.31
2023-05-06T10:24:27.721Z,238.12
2023-05-06T10:25:27.795Z,235.09
2023-05-06T10:26:27.816Z,235.97
2023-05-06T10:27:27.858Z,238.92
2023-05-06T10:28:30.969Z,238.60
2023-05-06T10:29:27.911Z,241.07
2023-05-06T10:30:27.912Z,239.87
2023-05-06T10:31:27.927Z,241.61
2023-05-06T10:32:27.880Z,238.24
2023-05-06T10:33:28.388Z,231.63
2023-05-06T10:34:27.860Z,225.59
2023-05-06T10:35:27.844Z,227.97
2023-05-06T10:36:27.842Z,227.50
2023-05-06T10:37:27.851Z,222.31
2023-05-06T10:38:27.828Z,222.17
2023-05-06T10:39:27.797Z,225.69
2023-05-06T10:40:27.824Z,226.19
2023-05-06T10:41:27.915Z,231.19
2023-05-06T10:42:27.808Z,232.29
2023-05-06T10:43:27.900Z,230.61
2023-05-06T10:44:27.787Z,235.51
2023-05-06T10:45:27.783Z,237.64
2023-05-06T10:46:27.805Z,234.48
2023-05-06T10:47:27.831Z,235.70
2023-05-06T10:48:27.761Z,237.08
2023-05-06T10:49:27.796Z,235.89
2023-05-06T10:50:27.771Z,227.42
2023-05-06T10:51:27.720Z,223.90
2023-05-06T10:52:27.714Z,226.63
2023-05-06T10:53:27.685Z,223.04
2023-05-06T10:54:27.693Z,219.19
2023-05-06T10:55:27.700Z,226.27
2023-05-06T10:56:27.724Z,225.70
2023-05-06T10:57:27.684Z,228.41
2023-05-06T10:58:27.648Z,232.54
2023-05-06T10:59:27.650Z,234.56
2023-05-06T11:00:27.641Z,240.18
2023-05-06T11:01:27.694Z,242.06
2023-05-06T11:02:27.650Z,240.71
2023-05-06T11:03:27.850Z,238.54
2023-05-06T11:04:27.638Z,231.41
2023-05-06T11:05:27.626Z,232.59
2023-05-06T11:06:27.606Z,231.73
2023-05-06T11:07:27.617Z,224.59
2023-05-06T11:08:27.684Z,218.55
2023-05-06T11:09:27.727Z,222.10
2023-05-06T11:10:27.753Z,228.90
2023-05-06T11:11:27.788Z,229.68
2023-05-06T11:12:27.834Z,228.92
2023-05-06T11:13:28.155Z,227.35
2023-05-06T11:14:27.908Z,225.06
2023-05-06T11:15:28.082Z,225.49
2023-05-06T11:16:28.033Z,226.61
2023-05-06T11:17:28.128Z,228.44
2023-05-06T11:18:28.106Z,224.75
2023-05-06T11:19:28.129Z,226.99
2023-05-06T11:20:28.166Z,226.13
2023-05-06T11:21:28.180Z,227.45
2023-05-06T11:22:28.237Z,230.71
2023-05-06T11:23:28.260Z,230.66
2023-05-06T11:24:28.339Z,232.08
2023-05-06T11:25:28.352Z,232.05
2023-05-06T11:26:28.430Z,227.52
2023-05-06T11:27:28.426Z,228.05
2023-05-06T11:28:28.467Z,227.11
2023-05-06T11:29:28.508Z,229.12
2023-05-06T11:30:28.555Z,230.23
2023-05-06T11:31:28.775Z,226.85
2023-05-06T11:32:28.636Z,229.60
2023-05-06T11:33:28.675Z,228.59
2023-05-06T11:34:28.738Z,229.97
2023-05-06T11:35:28.757Z,228.90
2023-05-06T11:36:28.790Z,226.89
2023-05-06T11:37:28.919Z,229.44
2023-05-06T11:38:28.895Z,229.90
2023-05-06T11:39:28.937Z,231.24
2023-05-06T11:40:28.930Z,229.93
2023-05-06T11:41:28.996Z,231.62
2023-05-06T11:42:29.072Z,230.24
2023-05-06T11:43:29.044Z,230.40
2023-05-06T11:44:29.100Z,230.25
2023-05-06T11:45:29.147Z,229.95
2023-05-06T11:46:29.244Z,229.87
2023-05-06T11:47:29.302Z,230.94
2023-05-06T11:48:29.264Z,230.04
2023-05-06T11:49:29.262Z,232.23
2023-05-06T11:50:29.297Z,230.99
2023-05-06T11:51:29.372Z,232.52
2023-05-06T11:52:29.380Z,230.45
2023-05-06T11:53:29.416Z,227.35
2023-05-06T11:54:29.398Z,227.58
2023-05-06T11:55:29.449Z,227.46
2023-05-06T11:56:29.466Z,226.74
2023-05-06T11:57:29.508Z,229.05
2023-05-06T11:58:29.538Z,229.78
2023-05-06T11:59:29.620Z,231.68
2023-05-06T12:00:29.644Z,231.55
2023-05-06T12:01:29.655Z,229.45
2023-05-06T12:02:29.758Z,228.69
2023-05-06T12:03:29.909Z,222.92
2023-05-06T12:04:29.743Z,215.87
2023-05-06T12:05:29.752Z,211.57
2023-05-06T12:06:29.788Z,209.44
2023-05-06T12:07:29.822Z,203.74
2023-05-06T12:08:29.840Z,206.66
2023-05-06T12:09:29.905Z,208.27
2023-05-06T12:10:29.921Z,207.92
2023-05-06T12:11:29.928Z,208.07
2023-05-06T12:12:29.937Z,206.32
2023-05-06T12:13:29.986Z,203.61
2023-05-06T12:14:30.030Z,202.47
2023-05-06T12:15:30.066Z,203.37
2023-05-06T12:16:30.139Z,199.95
2023-05-06T12:17:30.187Z,202.13
2023-05-06T12:18:30.111Z,198.99
2023-05-06T12:19:30.177Z,196.47
2023-05-06T12:20:30.180Z,197.58
2023-05-06T12:21:30.204Z,198.06
2023-05-06T12:22:30.228Z,193.57
2023-05-06T12:23:30.276Z,198.09
2023-05-06T12:24:30.242Z,204.32
2023-05-06T12:25:30.274Z,201.34
2023-05-06T12:26:30.314Z,202.54
2023-05-06T12:27:30.364Z,208.85
2023-05-06T12:28:30.349Z,215.75